sensor_id;sensor_type;location;lat;lon;timestamp;P1;durP1;ratioP1;P2;durP2;ratioP2
69878;SDS011;57161;43.136;24.706;2022-12-07T00:01:15;18.52;;;10.45;;
69878;SDS011;57161;43.136;24.706;2022-12-07T00:03:43;22.08;;;10.85;;
69878;SDS011;57161;43.136;24.706;2022-12-07T00:06:11;21.50;;;10.73;;
69878;SDS011;57161;43.136;24.706;2022-12-07T00:08:38;20.50;;;10.57;;
69878;SDS011;57161;43.136;24.706;2022-12-07T00:11:08;23.50;;;12.35;;
69878;SDS011;57161;43.136;24.706;2022-12-07T00:16:08;25.80;;;12.98;;
69878;SDS011;57161;43.136;24.706;2022-12-07T00:18:36;25.48;;;12.95;;
69878;SDS011;57161;43.136;24.706;2022-12-07T00:21:06;20.45;;;10.50;;
69878;SDS011;57161;43.136;24.706;2022-12-07T00:23:32;19.67;;;9.38;;
69878;SDS011;57161;43.136;24.706;2022-12-07T00:26:40;18.65;;;8.88;;
69878;SDS011;57161;43.136;24.706;2022-12-07T00:28:49;17.00;;;9.10;;
69878;SDS011;57161;43.136;24.706;2022-12-07T00:31:17;16.73;;;8.88;;
69878;SDS011;57161;43.136;24.706;2022-12-07T00:33:43;19.27;;;9.30;;
69878;SDS011;57161;43.136;24.706;2022-12-07T00:36:11;18.02;;;8.98;;
69878;SDS011;57161;43.136;24.706;2022-12-07T00:38:40;17.50;;;9.10;;
69878;SDS011;57161;43.136;24.706;2022-12-07T00:41:09;18.80;;;9.00;;
69878;SDS011;57161;43.136;24.706;2022-12-07T00:43:37;19.05;;;9.48;;
69878;SDS011;57161;43.136;24.706;2022-12-07T00:46:03;21.67;;;9.27;;
69878;SDS011;57161;43.136;24.706;2022-12-07T00:48:29;17.45;;;8.95;;
69878;SDS011;57161;43.136;24.706;2022-12-07T00:50:55;16.27;;;8.38;;
69878;SDS011;57161;43.136;24.706;2022-12-07T00:53:20;12.60;;;7.13;;
69878;SDS011;57161;43.136;24.706;2022-12-07T00:55:46;13.68;;;7.93;;
69878;SDS011;57161;43.136;24.706;2022-12-07T00:58:12;14.70;;;7.82;;
69878;SDS011;57161;43.136;24.706;2022-12-07T01:00:38;15.43;;;8.32;;
69878;SDS011;57161;43.136;24.706;2022-12-07T01:03:05;15.23;;;8.10;;
69878;SDS011;57161;43.136;24.706;2022-12-07T01:05:32;14.18;;;8.07;;
69878;SDS011;57161;43.136;24.706;2022-12-07T01:07:57;13.35;;;7.72;;
69878;SDS011;57161;43.136;24.706;2022-12-07T01:10:23;12.07;;;7.38;;
69878;SDS011;57161;43.136;24.706;2022-12-07T01:12:49;13.32;;;7.75;;
69878;SDS011;57161;43.136;24.706;2022-12-07T01:15:14;14.73;;;8.02;;
69878;SDS011;57161;43.136;24.706;2022-12-07T01:17:40;14.27;;;7.90;;
69878;SDS011;57161;43.136;24.706;2022-12-07T01:20:05;15.85;;;8.57;;
69878;SDS011;57161;43.136;24.706;2022-12-07T01:22:36;11.90;;;7.50;;
69878;SDS011;57161;43.136;24.706;2022-12-07T01:25:02;13.63;;;7.60;;
69878;SDS011;57161;43.136;24.706;2022-12-07T01:27:28;12.32;;;7.32;;
69878;SDS011;57161;43.136;24.706;2022-12-07T01:29:53;15.20;;;8.23;;
69878;SDS011;57161;43.136;24.706;2022-12-07T01:32:19;14.48;;;8.02;;
69878;SDS011;57161;43.136;24.706;2022-12-07T01:34:47;13.65;;;8.18;;
69878;SDS011;57161;43.136;24.706;2022-12-07T01:37:13;14.88;;;7.80;;
69878;SDS011;57161;43.136;24.706;2022-12-07T01:39:38;14.40;;;8.27;;
69878;SDS011;57161;43.136;24.706;2022-12-07T01:42:10;15.00;;;8.50;;
69878;SDS011;57161;43.136;24.706;2022-12-07T01:47:39;15.60;;;8.35;;
69878;SDS011;57161;43.136;24.706;2022-12-07T01:50:06;17.20;;;9.02;;
69878;SDS011;57161;43.136;24.706;2022-12-07T01:52:32;15.90;;;8.68;;
69878;SDS011;57161;43.136;24.706;2022-12-07T01:55:10;18.33;;;9.25;;
69878;SDS011;57161;43.136;24.706;2022-12-07T01:57:39;17.60;;;9.38;;
69878;SDS011;57161;43.136;24.706;2022-12-07T02:00:12;19.50;;;9.95;;
69878;SDS011;57161;43.136;24.706;2022-12-07T02:02:43;18.13;;;9.90;;
69878;SDS011;57161;43.136;24.706;2022-12-07T02:05:13;17.38;;;9.55;;
69878;SDS011;57161;43.136;24.706;2022-12-07T02:07:39;17.27;;;9.48;;
69878;SDS011;57161;43.136;24.706;2022-12-07T02:10:12;13.90;;;8.25;;
69878;SDS011;57161;43.136;24.706;2022-12-07T02:12:38;15.75;;;8.55;;
69878;SDS011;57161;43.136;24.706;2022-12-07T02:15:04;17.77;;;9.10;;
69878;SDS011;57161;43.136;24.706;2022-12-07T02:17:54;19.50;;;9.65;;
69878;SDS011;57161;43.136;24.706;2022-12-07T02:31:04;20.42;;;9.70;;
69878;SDS011;57161;43.136;24.706;2022-12-07T02:33:43;16.33;;;8.63;;
69878;SDS011;57161;43.136;24.706;2022-12-07T02:36:19;18.65;;;9.38;;
69878;SDS011;57161;43.136;24.706;2022-12-07T02:38:53;15.75;;;9.10;;
69878;SDS011;57161;43.136;24.706;2022-12-07T02:44:10;18.13;;;9.68;;
69878;SDS011;57161;43.136;24.706;2022-12-07T02:47:01;19.13;;;9.93;;
69878;SDS011;57161;43.136;24.706;2022-12-07T02:49:27;15.95;;;9.02;;
69878;SDS011;57161;43.136;24.706;2022-12-07T02:51:54;17.92;;;9.07;;
69878;SDS011;57161;43.136;24.706;2022-12-07T02:54:20;17.55;;;9.38;;
69878;SDS011;57161;43.136;24.706;2022-12-07T02:56:50;19.60;;;9.27;;
69878;SDS011;57161;43.136;24.706;2022-12-07T03:07:05;20.05;;;9.93;;
69878;SDS011;57161;43.136;24.706;2022-12-07T03:12:50;19.92;;;9.70;;
69878;SDS011;57161;43.136;24.706;2022-12-07T03:15:25;15.85;;;9.40;;
69878;SDS011;57161;43.136;24.706;2022-12-07T03:17:56;15.48;;;9.63;;
69878;SDS011;57161;43.136;24.706;2022-12-07T03:20:24;18.52;;;9.82;;
69878;SDS011;57161;43.136;24.706;2022-12-07T03:22:51;19.02;;;9.98;;
69878;SDS011;57161;43.136;24.706;2022-12-07T03:25:18;16.92;;;8.95;;
69878;SDS011;57161;43.136;24.706;2022-12-07T03:30:13;15.02;;;9.25;;
69878;SDS011;57161;43.136;24.706;2022-12-07T03:32:43;14.90;;;8.73;;
69878;SDS011;57161;43.136;24.706;2022-12-07T03:37:49;15.43;;;9.27;;
69878;SDS011;57161;43.136;24.706;2022-12-07T03:40:23;14.25;;;8.55;;
69878;SDS011;57161;43.136;24.706;2022-12-07T03:42:56;18.25;;;9.15;;
69878;SDS011;57161;43.136;24.706;2022-12-07T03:45:26;15.65;;;8.57;;
69878;SDS011;57161;43.136;24.706;2022-12-07T03:50:48;15.68;;;8.23;;
69878;SDS011;57161;43.136;24.706;2022-12-07T03:53:22;15.52;;;8.82;;
69878;SDS011;57161;43.136;24.706;2022-12-07T03:55:59;15.23;;;8.55;;
69878;SDS011;57161;43.136;24.706;2022-12-07T03:58:26;15.23;;;9.52;;
69878;SDS011;57161;43.136;24.706;2022-12-07T04:00:53;16.58;;;8.80;;
69878;SDS011;57161;43.136;24.706;2022-12-07T04:03:19;17.20;;;8.57;;
69878;SDS011;57161;43.136;24.706;2022-12-07T04:05:44;15.25;;;9.00;;
69878;SDS011;57161;43.136;24.706;2022-12-07T04:08:10;14.98;;;8.90;;
69878;SDS011;57161;43.136;24.706;2022-12-07T04:10:36;13.88;;;8.70;;
69878;SDS011;57161;43.136;24.706;2022-12-07T04:13:01;13.90;;;8.52;;
69878;SDS011;57161;43.136;24.706;2022-12-07T04:15:27;11.95;;;8.40;;
69878;SDS011;57161;43.136;24.706;2022-12-07T04:17:53;15.02;;;8.57;;
69878;SDS011;57161;43.136;24.706;2022-12-07T04:20:19;14.70;;;8.65;;
69878;SDS011;57161;43.136;24.706;2022-12-07T04:22:45;15.13;;;8.40;;
69878;SDS011;57161;43.136;24.706;2022-12-07T04:25:11;13.95;;;8.15;;
69878;SDS011;57161;43.136;24.706;2022-12-07T04:27:37;13.95;;;7.97;;
69878;SDS011;57161;43.136;24.706;2022-12-07T04:30:02;13.30;;;8.30;;
69878;SDS011;57161;43.136;24.706;2022-12-07T04:32:28;14.73;;;7.97;;
69878;SDS011;57161;43.136;24.706;2022-12-07T04:34:53;15.80;;;9.38;;
69878;SDS011;57161;43.136;24.706;2022-12-07T04:37:19;15.30;;;9.55;;
69878;SDS011;57161;43.136;24.706;2022-12-07T04:39:44;12.77;;;8.35;;
69878;SDS011;57161;43.136;24.706;2022-12-07T04:42:10;14.82;;;8.63;;
69878;SDS011;57161;43.136;24.706;2022-12-07T04:44:36;15.35;;;9.88;;
69878;SDS011;57161;43.136;24.706;2022-12-07T04:47:01;17.17;;;10.02;;
69878;SDS011;57161;43.136;24.706;2022-12-07T04:49:27;14.55;;;8.98;;
69878;SDS011;57161;43.136;24.706;2022-12-07T04:51:52;12.75;;;8.38;;
69878;SDS011;57161;43.136;24.706;2022-12-07T04:54:18;13.30;;;8.13;;
69878;SDS011;57161;43.136;24.706;2022-12-07T04:56:44;16.00;;;9.43;;
69878;SDS011;57161;43.136;24.706;2022-12-07T04:59:14;12.63;;;8.52;;
69878;SDS011;57161;43.136;24.706;2022-12-07T05:01:40;14.70;;;8.82;;
69878;SDS011;57161;43.136;24.706;2022-12-07T05:04:06;15.80;;;8.77;;
69878;SDS011;57161;43.136;24.706;2022-12-07T05:06:32;14.98;;;9.07;;
69878;SDS011;57161;43.136;24.706;2022-12-07T05:08:57;16.10;;;9.95;;
69878;SDS011;57161;43.136;24.706;2022-12-07T05:11:26;15.80;;;9.52;;
69878;SDS011;57161;43.136;24.706;2022-12-07T05:14:04;21.60;;;15.00;;
69878;SDS011;57161;43.136;24.706;2022-12-07T05:16:36;16.83;;;10.95;;
69878;SDS011;57161;43.136;24.706;2022-12-07T05:19:02;15.23;;;9.45;;
69878;SDS011;57161;43.136;24.706;2022-12-07T05:21:28;20.10;;;12.98;;
69878;SDS011;57161;43.136;24.706;2022-12-07T05:23:54;15.40;;;9.23;;
69878;SDS011;57161;43.136;24.706;2022-12-07T05:26:20;16.05;;;9.82;;
69878;SDS011;57161;43.136;24.706;2022-12-07T05:28:49;13.35;;;8.60;;
69878;SDS011;57161;43.136;24.706;2022-12-07T05:31:16;17.13;;;10.15;;
69878;SDS011;57161;43.136;24.706;2022-12-07T05:33:41;14.65;;;9.50;;
69878;SDS011;57161;43.136;24.706;2022-12-07T05:36:07;15.90;;;9.15;;
69878;SDS011;57161;43.136;24.706;2022-12-07T05:38:32;13.68;;;8.30;;
69878;SDS011;57161;43.136;24.706;2022-12-07T05:41:02;15.75;;;9.40;;
69878;SDS011;57161;43.136;24.706;2022-12-07T05:43:28;40.33;;;16.48;;
69878;SDS011;57161;43.136;24.706;2022-12-07T05:45:55;58.10;;;19.65;;
69878;SDS011;57161;43.136;24.706;2022-12-07T05:48:20;37.92;;;16.13;;
69878;SDS011;57161;43.136;24.706;2022-12-07T05:50:49;22.13;;;12.68;;
69878;SDS011;57161;43.136;24.706;2022-12-07T05:53:15;22.85;;;15.13;;
69878;SDS011;57161;43.136;24.706;2022-12-07T05:55:41;31.55;;;20.63;;
69878;SDS011;57161;43.136;24.706;2022-12-07T05:58:07;25.17;;;17.33;;
69878;SDS011;57161;43.136;24.706;2022-12-07T06:00:53;21.58;;;13.32;;
69878;SDS011;57161;43.136;24.706;2022-12-07T06:03:19;31.25;;;15.07;;
69878;SDS011;57161;43.136;24.706;2022-12-07T06:05:45;27.00;;;15.95;;
69878;SDS011;57161;43.136;24.706;2022-12-07T06:08:10;25.08;;;14.43;;
69878;SDS011;57161;43.136;24.706;2022-12-07T06:10:36;20.55;;;12.65;;
69878;SDS011;57161;43.136;24.706;2022-12-07T06:13:01;39.60;;;22.88;;
69878;SDS011;57161;43.136;24.706;2022-12-07T06:15:27;48.92;;;22.50;;
69878;SDS011;57161;43.136;24.706;2022-12-07T06:17:52;27.95;;;18.35;;
69878;SDS011;57161;43.136;24.706;2022-12-07T06:20:18;27.10;;;16.90;;
69878;SDS011;57161;43.136;24.706;2022-12-07T06:22:43;28.40;;;17.23;;
69878;SDS011;57161;43.136;24.706;2022-12-07T06:25:08;20.50;;;13.80;;
69878;SDS011;57161;43.136;24.706;2022-12-07T06:27:34;22.42;;;13.27;;
69878;SDS011;57161;43.136;24.706;2022-12-07T06:30:00;20.75;;;12.65;;
69878;SDS011;57161;43.136;24.706;2022-12-07T06:32:31;20.58;;;13.40;;
69878;SDS011;57161;43.136;24.706;2022-12-07T06:34:57;23.88;;;15.25;;
69878;SDS011;57161;43.136;24.706;2022-12-07T06:37:22;24.77;;;15.23;;
69878;SDS011;57161;43.136;24.706;2022-12-07T06:39:48;22.50;;;14.70;;
69878;SDS011;57161;43.136;24.706;2022-12-07T06:42:14;26.33;;;16.60;;
69878;SDS011;57161;43.136;24.706;2022-12-07T06:44:39;29.50;;;19.65;;
69878;SDS011;57161;43.136;24.706;2022-12-07T06:47:05;34.83;;;19.25;;
69878;SDS011;57161;43.136;24.706;2022-12-07T06:49:30;26.15;;;16.50;;
69878;SDS011;57161;43.136;24.706;2022-12-07T06:51:56;35.95;;;19.63;;
69878;SDS011;57161;43.136;24.706;2022-12-07T06:54:21;27.05;;;16.20;;
69878;SDS011;57161;43.136;24.706;2022-12-07T06:56:47;26.05;;;16.05;;
69878;SDS011;57161;43.136;24.706;2022-12-07T06:59:12;25.67;;;15.27;;
69878;SDS011;57161;43.136;24.706;2022-12-07T07:01:38;21.13;;;13.25;;
69878;SDS011;57161;43.136;24.706;2022-12-07T07:04:04;16.95;;;11.40;;
69878;SDS011;57161;43.136;24.706;2022-12-07T07:06:30;19.73;;;12.05;;
69878;SDS011;57161;43.136;24.706;2022-12-07T07:08:56;29.20;;;17.90;;
69878;SDS011;57161;43.136;24.706;2022-12-07T07:11:21;24.02;;;12.23;;
69878;SDS011;57161;43.136;24.706;2022-12-07T07:13:46;15.25;;;10.00;;
69878;SDS011;57161;43.136;24.706;2022-12-07T07:16:12;20.05;;;10.60;;
69878;SDS011;57161;43.136;24.706;2022-12-07T07:18:38;18.35;;;10.85;;
69878;SDS011;57161;43.136;24.706;2022-12-07T07:21:03;16.98;;;10.45;;
69878;SDS011;57161;43.136;24.706;2022-12-07T07:23:29;18.08;;;10.60;;
69878;SDS011;57161;43.136;24.706;2022-12-07T07:25:54;14.80;;;10.00;;
69878;SDS011;57161;43.136;24.706;2022-12-07T07:28:20;13.35;;;8.60;;
69878;SDS011;57161;43.136;24.706;2022-12-07T07:30:45;11.80;;;8.20;;
69878;SDS011;57161;43.136;24.706;2022-12-07T07:33:11;14.23;;;8.38;;
69878;SDS011;57161;43.136;24.706;2022-12-07T07:35:37;14.20;;;8.35;;
69878;SDS011;57161;43.136;24.706;2022-12-07T07:38:03;16.30;;;10.95;;
69878;SDS011;57161;43.136;24.706;2022-12-07T07:40:29;24.42;;;17.20;;
69878;SDS011;57161;43.136;24.706;2022-12-07T07:42:55;30.05;;;16.77;;
69878;SDS011;57161;43.136;24.706;2022-12-07T07:45:21;23.85;;;14.90;;
69878;SDS011;57161;43.136;24.706;2022-12-07T07:47:48;28.02;;;15.85;;
69878;SDS011;57161;43.136;24.706;2022-12-07T07:50:14;25.50;;;13.38;;
69878;SDS011;57161;43.136;24.706;2022-12-07T07:52:41;20.23;;;11.50;;
69878;SDS011;57161;43.136;24.706;2022-12-07T07:55:07;22.00;;;12.45;;
69878;SDS011;57161;43.136;24.706;2022-12-07T07:57:34;19.25;;;12.68;;
69878;SDS011;57161;43.136;24.706;2022-12-07T08:00:07;18.35;;;12.00;;
69878;SDS011;57161;43.136;24.706;2022-12-07T08:02:35;27.70;;;15.45;;
69878;SDS011;57161;43.136;24.706;2022-12-07T08:05:00;37.90;;;18.00;;
69878;SDS011;57161;43.136;24.706;2022-12-07T08:07:26;30.52;;;17.50;;
69878;SDS011;57161;43.136;24.706;2022-12-07T08:09:52;30.45;;;14.57;;
69878;SDS011;57161;43.136;24.706;2022-12-07T08:12:18;29.92;;;16.45;;
69878;SDS011;57161;43.136;24.706;2022-12-07T08:14:44;34.40;;;17.40;;
69878;SDS011;57161;43.136;24.706;2022-12-07T08:17:09;21.92;;;13.52;;
69878;SDS011;57161;43.136;24.706;2022-12-07T08:19:35;21.35;;;11.77;;
69878;SDS011;57161;43.136;24.706;2022-12-07T08:22:00;21.60;;;11.73;;
69878;SDS011;57161;43.136;24.706;2022-12-07T08:24:27;27.23;;;15.20;;
69878;SDS011;57161;43.136;24.706;2022-12-07T08:26:52;29.63;;;16.83;;
69878;SDS011;57161;43.136;24.706;2022-12-07T08:29:18;23.15;;;13.13;;
69878;SDS011;57161;43.136;24.706;2022-12-07T08:31:44;19.15;;;11.48;;
69878;SDS011;57161;43.136;24.706;2022-12-07T08:34:10;23.38;;;13.93;;
69878;SDS011;57161;43.136;24.706;2022-12-07T08:36:36;32.22;;;18.63;;
69878;SDS011;57161;43.136;24.706;2022-12-07T08:39:01;29.17;;;18.92;;
69878;SDS011;57161;43.136;24.706;2022-12-07T08:41:27;25.15;;;16.15;;
69878;SDS011;57161;43.136;24.706;2022-12-07T08:43:52;27.63;;;14.85;;
69878;SDS011;57161;43.136;24.706;2022-12-07T08:46:20;28.55;;;13.30;;
69878;SDS011;57161;43.136;24.706;2022-12-07T08:48:58;24.33;;;13.30;;
69878;SDS011;57161;43.136;24.706;2022-12-07T08:51:27;26.52;;;14.40;;
69878;SDS011;57161;43.136;24.706;2022-12-07T08:53:53;25.27;;;15.25;;
69878;SDS011;57161;43.136;24.706;2022-12-07T08:56:22;32.20;;;15.82;;
69878;SDS011;57161;43.136;24.706;2022-12-07T08:58:49;31.30;;;16.90;;
69878;SDS011;57161;43.136;24.706;2022-12-07T09:01:14;32.00;;;18.77;;
69878;SDS011;57161;43.136;24.706;2022-12-07T09:03:40;31.80;;;19.95;;
69878;SDS011;57161;43.136;24.706;2022-12-07T09:06:05;33.47;;;19.02;;
69878;SDS011;57161;43.136;24.706;2022-12-07T09:08:33;34.83;;;19.08;;
69878;SDS011;57161;43.136;24.706;2022-12-07T09:11:02;29.40;;;16.90;;
69878;SDS011;57161;43.136;24.706;2022-12-07T09:13:27;31.95;;;17.73;;
69878;SDS011;57161;43.136;24.706;2022-12-07T09:15:53;30.20;;;17.42;;
69878;SDS011;57161;43.136;24.706;2022-12-07T09:18:19;30.00;;;17.13;;
69878;SDS011;57161;43.136;24.706;2022-12-07T09:20:44;28.80;;;17.08;;
69878;SDS011;57161;43.136;24.706;2022-12-07T09:23:10;24.90;;;15.80;;
69878;SDS011;57161;43.136;24.706;2022-12-07T09:25:35;26.30;;;15.35;;
69878;SDS011;57161;43.136;24.706;2022-12-07T09:28:01;27.60;;;16.40;;
69878;SDS011;57161;43.136;24.706;2022-12-07T09:30:27;33.85;;;20.02;;
69878;SDS011;57161;43.136;24.706;2022-12-07T09:32:53;32.58;;;21.60;;
69878;SDS011;57161;43.136;24.706;2022-12-07T09:35:20;28.58;;;17.77;;
69878;SDS011;57161;43.136;24.706;2022-12-07T09:37:45;30.30;;;16.33;;
69878;SDS011;57161;43.136;24.706;2022-12-07T09:40:12;41.28;;;24.60;;
69878;SDS011;57161;43.136;24.706;2022-12-07T09:42:39;42.33;;;22.08;;
69878;SDS011;57161;43.136;24.706;2022-12-07T09:45:16;54.78;;;31.45;;
69878;SDS011;57161;43.136;24.706;2022-12-07T09:47:54;36.90;;;20.45;;
69878;SDS011;57161;43.136;24.706;2022-12-07T09:50:24;49.58;;;31.67;;
69878;SDS011;57161;43.136;24.706;2022-12-07T09:52:51;74.45;;;46.88;;
69878;SDS011;57161;43.136;24.706;2022-12-07T09:55:28;53.35;;;37.72;;
69878;SDS011;57161;43.136;24.706;2022-12-07T09:57:55;30.92;;;16.98;;
69878;SDS011;57161;43.136;24.706;2022-12-07T10:00:23;109.80;;;52.33;;
69878;SDS011;57161;43.136;24.706;2022-12-07T10:02:53;39.15;;;21.13;;
69878;SDS011;57161;43.136;24.706;2022-12-07T10:05:29;67.35;;;33.17;;
69878;SDS011;57161;43.136;24.706;2022-12-07T10:07:58;61.97;;;29.30;;
69878;SDS011;57161;43.136;24.706;2022-12-07T10:10:25;29.42;;;17.98;;
69878;SDS011;57161;43.136;24.706;2022-12-07T10:15:22;33.35;;;18.13;;
69878;SDS011;57161;43.136;24.706;2022-12-07T10:17:49;36.20;;;19.98;;
69878;SDS011;57161;43.136;24.706;2022-12-07T10:23:01;72.85;;;57.72;;
69878;SDS011;57161;43.136;24.706;2022-12-07T10:25:33;63.80;;;47.80;;
69878;SDS011;57161;43.136;24.706;2022-12-07T10:30:32;47.88;;;28.02;;
69878;SDS011;57161;43.136;24.706;2022-12-07T10:33:31;51.05;;;33.70;;
69878;SDS011;57161;43.136;24.706;2022-12-07T10:35:59;35.25;;;18.92;;
69878;SDS011;57161;43.136;24.706;2022-12-07T10:38:34;30.10;;;17.88;;
69878;SDS011;57161;43.136;24.706;2022-12-07T10:41:23;35.33;;;19.88;;
69878;SDS011;57161;43.136;24.706;2022-12-07T10:43:53;41.65;;;23.10;;
69878;SDS011;57161;43.136;24.706;2022-12-07T10:56:58;27.80;;;17.00;;
69878;SDS011;57161;43.136;24.706;2022-12-07T11:05:27;32.65;;;19.90;;
69878;SDS011;57161;43.136;24.706;2022-12-07T11:11:01;36.75;;;20.55;;
69878;SDS011;57161;43.136;24.706;2022-12-07T11:17:00;58.40;;;33.72;;
69878;SDS011;57161;43.136;24.706;2022-12-07T11:33:55;53.65;;;27.15;;
69878;SDS011;57161;43.136;24.706;2022-12-07T11:36:31;42.70;;;24.05;;
69878;SDS011;57161;43.136;24.706;2022-12-07T11:39:35;48.38;;;25.40;;
69878;SDS011;57161;43.136;24.706;2022-12-07T11:42:05;85.40;;;50.75;;
69878;SDS011;57161;43.136;24.706;2022-12-07T11:44:40;71.20;;;38.42;;
69878;SDS011;57161;43.136;24.706;2022-12-07T11:50:03;48.58;;;31.13;;
69878;SDS011;57161;43.136;24.706;2022-12-07T11:57:51;35.60;;;20.50;;
69878;SDS011;57161;43.136;24.706;2022-12-07T12:00:22;31.17;;;16.88;;
69878;SDS011;57161;43.136;24.706;2022-12-07T12:05:20;62.28;;;39.38;;
69878;SDS011;57161;43.136;24.706;2022-12-07T12:07:49;39.22;;;24.20;;
69878;SDS011;57161;43.136;24.706;2022-12-07T12:10:37;71.15;;;44.05;;
69878;SDS011;57161;43.136;24.706;2022-12-07T12:19:27;43.05;;;23.17;;
69878;SDS011;57161;43.136;24.706;2022-12-07T12:22:18;32.83;;;17.98;;
69878;SDS011;57161;43.136;24.706;2022-12-07T12:24:50;52.88;;;28.98;;
69878;SDS011;57161;43.136;24.706;2022-12-07T12:27:26;51.88;;;29.70;;
69878;SDS011;57161;43.136;24.706;2022-12-07T12:29:57;34.20;;;19.30;;
69878;SDS011;57161;43.136;24.706;2022-12-07T12:37:57;136.00;;;64.28;;
69878;SDS011;57161;43.136;24.706;2022-12-07T12:40:53;141.73;;;73.18;;
69878;SDS011;57161;43.136;24.706;2022-12-07T12:43:42;183.02;;;92.72;;
69878;SDS011;57161;43.136;24.706;2022-12-07T12:48:55;68.57;;;35.40;;
69878;SDS011;57161;43.136;24.706;2022-12-07T12:51:39;109.57;;;54.63;;
69878;SDS011;57161;43.136;24.706;2022-12-07T12:54:19;96.03;;;47.92;;
69878;SDS011;57161;43.136;24.706;2022-12-07T12:59:26;251.50;;;105.07;;
69878;SDS011;57161;43.136;24.706;2022-12-07T13:13:01;48.88;;;29.02;;
69878;SDS011;57161;43.136;24.706;2022-12-07T13:15:35;80.18;;;43.22;;
69878;SDS011;57161;43.136;24.706;2022-12-07T13:18:54;68.78;;;35.20;;
69878;SDS011;57161;43.136;24.706;2022-12-07T13:23:26;61.35;;;33.28;;
69878;SDS011;57161;43.136;24.706;2022-12-07T13:29:14;45.67;;;27.17;;
69878;SDS011;57161;43.136;24.706;2022-12-07T13:31:51;51.78;;;27.27;;
69878;SDS011;57161;43.136;24.706;2022-12-07T13:35:01;134.25;;;58.53;;
69878;SDS011;57161;43.136;24.706;2022-12-07T13:37:12;72.65;;;33.10;;
69878;SDS011;57161;43.136;24.706;2022-12-07T13:39:54;41.67;;;22.10;;
69878;SDS011;57161;43.136;24.706;2022-12-07T13:42:30;87.18;;;43.15;;
69878;SDS011;57161;43.136;24.706;2022-12-07T13:44:58;116.95;;;57.65;;
69878;SDS011;57161;43.136;24.706;2022-12-07T13:47:36;102.40;;;53.53;;
69878;SDS011;57161;43.136;24.706;2022-12-07T13:52:49;49.75;;;27.60;;
69878;SDS011;57161;43.136;24.706;2022-12-07T13:55:15;60.95;;;35.17;;
69878;SDS011;57161;43.136;24.706;2022-12-07T13:57:42;49.33;;;28.42;;
69878;SDS011;57161;43.136;24.706;2022-12-07T14:00:15;51.72;;;30.05;;
69878;SDS011;57161;43.136;24.706;2022-12-07T14:02:57;57.85;;;31.00;;
69878;SDS011;57161;43.136;24.706;2022-12-07T14:06:02;154.23;;;80.05;;
69878;SDS011;57161;43.136;24.706;2022-12-07T14:08:50;174.82;;;96.03;;
69878;SDS011;57161;43.136;24.706;2022-12-07T14:11:30;96.15;;;53.15;;
69878;SDS011;57161;43.136;24.706;2022-12-07T14:13:58;73.95;;;40.72;;
69878;SDS011;57161;43.136;24.706;2022-12-07T14:16:36;125.47;;;71.82;;
69878;SDS011;57161;43.136;24.706;2022-12-07T14:19:04;98.97;;;58.40;;
69878;SDS011;57161;43.136;24.706;2022-12-07T14:21:32;71.00;;;40.70;;
69878;SDS011;57161;43.136;24.706;2022-12-07T14:24:20;53.28;;;29.65;;
69878;SDS011;57161;43.136;24.706;2022-12-07T14:26:46;101.93;;;50.25;;
69878;SDS011;57161;43.136;24.706;2022-12-07T14:31:51;57.03;;;31.17;;
69878;SDS011;57161;43.136;24.706;2022-12-07T14:34:19;73.95;;;39.58;;
69878;SDS011;57161;43.136;24.706;2022-12-07T14:36:45;70.32;;;39.03;;
69878;SDS011;57161;43.136;24.706;2022-12-07T14:39:10;69.22;;;41.53;;
69878;SDS011;57161;43.136;24.706;2022-12-07T14:41:36;46.65;;;27.92;;
69878;SDS011;57161;43.136;24.706;2022-12-07T14:44:17;87.35;;;47.42;;
69878;SDS011;57161;43.136;24.706;2022-12-07T14:46:45;107.40;;;56.58;;
69878;SDS011;57161;43.136;24.706;2022-12-07T14:49:12;53.03;;;30.95;;
69878;SDS011;57161;43.136;24.706;2022-12-07T14:51:38;49.60;;;28.33;;
69878;SDS011;57161;43.136;24.706;2022-12-07T14:54:06;122.32;;;67.60;;
69878;SDS011;57161;43.136;24.706;2022-12-07T14:56:37;80.85;;;45.70;;
69878;SDS011;57161;43.136;24.706;2022-12-07T14:59:03;139.35;;;76.70;;
69878;SDS011;57161;43.136;24.706;2022-12-07T15:01:28;131.20;;;76.43;;
69878;SDS011;57161;43.136;24.706;2022-12-07T15:03:54;87.93;;;48.65;;
69878;SDS011;57161;43.136;24.706;2022-12-07T15:06:19;113.15;;;61.25;;
69878;SDS011;57161;43.136;24.706;2022-12-07T15:08:45;105.53;;;58.58;;
69878;SDS011;57161;43.136;24.706;2022-12-07T15:11:14;74.25;;;45.05;;
69878;SDS011;57161;43.136;24.706;2022-12-07T15:13:41;99.65;;;56.45;;
69878;SDS011;57161;43.136;24.706;2022-12-07T15:16:25;71.10;;;43.75;;
69878;SDS011;57161;43.136;24.706;2022-12-07T15:18:50;43.05;;;24.73;;
69878;SDS011;57161;43.136;24.706;2022-12-07T15:21:16;45.72;;;23.83;;
69878;SDS011;57161;43.136;24.706;2022-12-07T15:23:42;43.65;;;26.20;;
69878;SDS011;57161;43.136;24.706;2022-12-07T15:26:09;52.67;;;31.20;;
69878;SDS011;57161;43.136;24.706;2022-12-07T15:28:35;49.05;;;27.15;;
69878;SDS011;57161;43.136;24.706;2022-12-07T15:31:01;50.20;;;29.52;;
69878;SDS011;57161;43.136;24.706;2022-12-07T15:33:26;56.92;;;32.97;;
69878;SDS011;57161;43.136;24.706;2022-12-07T15:35:52;80.32;;;41.60;;
69878;SDS011;57161;43.136;24.706;2022-12-07T15:38:17;117.53;;;54.42;;
69878;SDS011;57161;43.136;24.706;2022-12-07T15:40:46;99.40;;;49.60;;
69878;SDS011;57161;43.136;24.706;2022-12-07T15:43:11;59.42;;;33.60;;
69878;SDS011;57161;43.136;24.706;2022-12-07T15:46:03;67.90;;;39.10;;
69878;SDS011;57161;43.136;24.706;2022-12-07T15:48:28;113.07;;;59.78;;
69878;SDS011;57161;43.136;24.706;2022-12-07T15:51:00;103.00;;;54.30;;
69878;SDS011;57161;43.136;24.706;2022-12-07T15:53:30;118.65;;;69.22;;
69878;SDS011;57161;43.136;24.706;2022-12-07T15:55:56;85.80;;;49.92;;
69878;SDS011;57161;43.136;24.706;2022-12-07T15:58:21;78.13;;;46.13;;
69878;SDS011;57161;43.136;24.706;2022-12-07T16:00:47;140.38;;;81.05;;
69878;SDS011;57161;43.136;24.706;2022-12-07T16:03:13;91.80;;;55.00;;
69878;SDS011;57161;43.136;24.706;2022-12-07T16:05:39;97.97;;;54.28;;
69878;SDS011;57161;43.136;24.706;2022-12-07T16:08:04;140.10;;;71.30;;
69878;SDS011;57161;43.136;24.706;2022-12-07T16:10:30;83.95;;;47.15;;
69878;SDS011;57161;43.136;24.706;2022-12-07T16:12:55;152.63;;;78.63;;
69878;SDS011;57161;43.136;24.706;2022-12-07T16:15:21;110.88;;;62.22;;
69878;SDS011;57161;43.136;24.706;2022-12-07T16:17:46;85.38;;;48.70;;
69878;SDS011;57161;43.136;24.706;2022-12-07T16:20:12;90.03;;;48.20;;
69878;SDS011;57161;43.136;24.706;2022-12-07T16:22:37;81.50;;;44.58;;
69878;SDS011;57161;43.136;24.706;2022-12-07T16:25:03;74.78;;;41.67;;
69878;SDS011;57161;43.136;24.706;2022-12-07T16:27:29;74.10;;;37.90;;
69878;SDS011;57161;43.136;24.706;2022-12-07T16:29:54;80.40;;;40.17;;
69878;SDS011;57161;43.136;24.706;2022-12-07T16:32:20;86.13;;;43.50;;
69878;SDS011;57161;43.136;24.706;2022-12-07T16:34:45;87.28;;;44.45;;